Time;durP1;ratioP1;P1;durP2;ratioP2;P2;SDS_P1;SDS_P2;PMS_P1;PMS_P2;Temp;Humidity;BMP_temperature;BMP_pressure;BME280_temperature;BME280_humidity;BME280_pressure;Samples;Min_cycle;Max_cycle;Signal;HPM_P1;HPM_P2
2023/06/18 00:02:00;;;;;;;2.65;1.17;;;;;;;20.41;58.61;101180.28;4994447;28;20395;-46
2023/06/18 00:04:26;;;;;;;6.25;1.48;;;;;;;20.34;58.46;101177.81;4994426;28;20026;-45
2023/06/18 00:06:54;;;;;;;5.40;1.65;;;;;;;20.49;59.62;101169.78;4994263;28;20057;-48
2023/06/18 00:09:21;;;;;;;14.50;2.45;;;;;;;20.19;58.69;101161.41;4994276;28;20375;-45
2023/06/18 00:11:49;;;;;;;31.65;4.00;;;;;;;19.68;60.61;101170.00;4994354;28;20026;-49
2023/06/18 00:14:15;;;;;;;2.38;1.30;;;;;;;19.66;60.59;101165.91;4994549;28;20023;-46
2023/06/18 00:16:42;;;;;;;6.97;1.80;;;;;;;19.37;61.43;101154.47;4994563;28;20054;-48
2023/06/18 00:19:08;;;;;;;2.28;1.35;;;;;;;19.44;60.79;101150.47;4994251;28;20495;-49
2023/06/18 00:21:35;;;;;;;20.48;4.00;;;;;;;19.01;62.78;101150.56;4994136;28;20471;-48
2023/06/18 00:24:01;;;;;;;4.25;1.70;;;;;;;18.66;62.80;101163.44;4994189;28;20022;-46
2023/06/18 00:26:28;;;;;;;59.45;6.45;;;;;;;19.06;62.77;101166.91;4994096;28;20073;-50
2023/06/18 00:28:54;;;;;;;4.82;1.20;;;;;;;18.89;62.71;101153.44;4993959;28;20085;-47
2023/06/18 00:31:21;;;;;;;1.88;1.30;;;;;;;19.13;62.36;101152.06;4994498;28;20023;-50
2023/06/18 00:33:47;;;;;;;4.28;1.27;;;;;;;19.16;63.64;101148.84;4994281;28;20034;-49
2023/06/18 00:36:14;;;;;;;3.28;1.52;;;;;;;19.09;62.67;101147.38;4993888;28;20026;-48
2023/06/18 00:38:46;;;;;;;4.05;1.20;;;;;;;19.09;62.70;101147.38;4994037;28;20026;-50
2023/06/18 00:41:13;;;;;;;3.55;1.58;;;;;;;19.14;62.73;101144.72;4993602;28;20492;-50
2023/06/18 00:43:39;;;;;;;2.33;1.05;;;;;;;19.27;62.07;101141.63;4993737;28;20038;-50
2023/06/18 00:46:07;;;;;;;2.22;1.10;;;;;;;19.28;62.14;101135.13;4994094;28;20026;-50
2023/06/18 00:48:35;;;;;;;1.67;1.20;;;;;;;19.14;62.06;101129.28;4993950;28;20034;-46
2023/06/18 00:51:05;;;;;;;3.53;1.05;;;;;;;19.17;61.73;101139.63;4993269;28;20076;-50
2023/06/18 00:53:32;;;;;;;2.45;1.05;;;;;;;19.22;62.28;101131.53;4993958;28;20459;-50
2023/06/18 00:55:59;;;;;;;0.93;0.75;;;;;;;18.94;62.80;101135.31;4994323;28;20039;-50
2023/06/18 00:58:25;;;;;;;1.33;0.80;;;;;;;19.06;61.90;101134.34;4993548;28;20471;-50
2023/06/18 01:00:52;;;;;;;4.45;1.10;;;;;;;19.09;62.41;101125.69;4993537;28;20085;-48
2023/06/18 01:03:20;;;;;;;1.55;1.00;;;;;;;18.92;61.60;101131.19;4993810;28;20027;-51
2023/06/18 01:05:52;;;;;;;2.72;0.85;;;;;;;18.83;62.85;101125.44;4993532;28;20026;-51
2023/06/18 01:08:23;;;;;;;3.30;1.40;;;;;;;19.11;62.39;101128.97;4993493;28;20106;-50
2023/06/18 01:11:04;;;;;;;3.03;1.05;;;;;;;19.10;62.03;101128.16;4993862;28;20026;-48
2023/06/18 01:13:32;;;;;;;2.15;0.90;;;;;;;19.15;61.64;101119.22;4993478;28;20069;-49
2023/06/18 01:16:05;;;;;;;0.90;0.70;;;;;;;19.20;61.10;101105.72;4993409;28;20030;-51
2023/06/18 01:18:46;;;;;;;4.07;1.00;;;;;;;18.65;62.31;101112.16;4993593;28;20125;-50
2023/06/18 01:21:19;;;;;;;1.65;0.90;;;;;;;18.71;62.75;101103.88;4993803;28;20381;-49
2023/06/18 01:24:04;;;;;;;2.30;1.63;;;;;;;18.79;62.90;101105.31;4994025;28;20034;-50
2023/06/18 01:26:32;;;;;;;1.70;0.80;;;;;;;18.94;63.32;101108.19;4993470;28;20445;-50
2023/06/18 01:29:00;;;;;;;2.25;0.98;;;;;;;19.08;62.54;101102.34;4993565;28;20396;-48
2023/06/18 01:31:26;;;;;;;2.15;1.00;;;;;;;19.05;62.43;101106.41;4993361;28;20030;-47
2023/06/18 01:33:53;;;;;;;3.97;1.00;;;;;;;19.30;62.38;101107.72;4993342;28;20053;-49
2023/06/18 01:36:50;;;;;;;1.77;0.73;;;;;;;18.97;61.88;101101.41;4993325;28;20026;-49
2023/06/18 01:40:00;;;;;;;1.88;0.90;;;;;;;18.98;62.56;101103.88;4993263;28;20475;-49
2023/06/18 01:42:33;;;;;;;1.20;0.93;;;;;;;18.88;62.73;101108.41;4971869;28;20039;-50
2023/06/18 01:45:30;;;;;;;1.83;0.93;;;;;;;18.65;63.38;101110.25;4989686;28;20053;-50
2023/06/18 01:48:00;;;;;;;1.83;0.90;;;;;;;18.27;64.54;101111.16;4993185;28;20022;-49
2023/06/18 01:50:28;;;;;;;1.83;1.00;;;;;;;18.00;65.45;101124.56;4993168;28;20033;-48
2023/06/18 01:52:57;;;;;;;2.72;1.33;;;;;;;17.86;65.24;101117.84;4993201;28;20026;-50
2023/06/18 01:55:25;;;;;;;3.45;1.25;;;;;;;17.65;66.05;101117.50;4993350;28;20030;-49
2023/06/18 01:57:52;;;;;;;1.20;0.98;;;;;;;17.58;66.54;101116.84;4992785;28;20031;-49
2023/06/18 02:00:19;;;;;;;2.28;1.20;;;;;;;17.25;68.03;101106.81;4996277;28;20030;-50
2023/06/18 02:02:46;;;;;;;4.07;1.33;;;;;;;17.13;69.10;101114.97;4996644;28;20399;-47
2023/06/18 02:05:12;;;;;;;1.73;1.48;;;;;;;17.17;68.97;101109.09;4996794;28;20104;-46
2023/06/18 02:07:39;;;;;;;3.00;1.73;;;;;;;16.74;70.42;101105.03;4996795;28;20033;-47
2023/06/18 02:10:05;;;;;;;4.82;1.70;;;;;;;16.58;71.38;101098.47;4996527;28;20026;-49
2023/06/18 02:12:32;;;;;;;2.95;1.55;;;;;;;16.66;71.62;101118.88;4996530;28;20018;-47
2023/06/18 02:14:58;;;;;;;4.97;1.70;;;;;;;16.40;72.76;101120.25;4996470;28;20026;-49
2023/06/18 02:17:26;;;;;;;3.22;1.50;;;;;;;16.65;71.10;101128.88;4996433;28;20054;-50
2023/06/18 02:19:52;;;;;;;4.28;2.10;;;;;;;16.21;72.98;101127.66;4996352;28;20031;-46
2023/06/18 02:22:19;;;;;;;3.67;1.65;;;;;;;16.47;72.41;101137.97;4996620;28;20478;-49
2023/06/18 02:24:45;;;;;;;4.25;1.90;;;;;;;16.40;72.75;101134.59;4996254;28;20030;-49
2023/06/18 02:27:12;;;;;;;4.80;2.78;;;;;;;16.51;72.83;101130.22;4996059;28;20436;-49
2023/06/18 02:29:38;;;;;;;6.03;3.03;;;;;;;16.33;73.18;101132.03;4996116;28;20431;-49
2023/06/18 02:32:04;;;;;;;5.47;2.65;;;;;;;16.17;74.05;101132.72;4996117;28;20037;-48
2023/06/18 02:34:31;;;;;;;3.75;2.17;;;;;;;16.49;73.04;101119.66;4996046;28;20077;-46
2023/06/18 02:36:58;;;;;;;6.82;2.75;;;;;;;16.53;73.00;101110.00;4996016;28;20058;-46
2023/06/18 02:39:24;;;;;;;5.93;2.58;;;;;;;16.81;71.53;101122.75;4995832;28;20065;-47
2023/06/18 02:41:50;;;;;;;3.70;1.90;;;;;;;16.77;71.12;101120.78;4995968;28;20125;-46
2023/06/18 02:44:17;;;;;;;6.50;3.10;;;;;;;16.54;72.01;101125.16;4995819;28;20030;-47
2023/06/18 02:46:43;;;;;;;9.40;3.90;;;;;;;16.43;73.04;101120.59;4995851;28;20479;-46
2023/06/18 02:49:09;;;;;;;8.60;4.03;;;;;;;16.62;72.75;101122.09;4995894;28;20034;-49
2023/06/18 02:51:37;;;;;;;9.02;4.65;;;;;;;16.57;72.82;101121.16;4995927;28;20470;-49
2023/06/18 02:54:03;;;;;;;10.38;4.53;;;;;;;16.74;71.64;101126.66;4996143;28;20097;-47
2023/06/18 02:56:29;;;;;;;9.75;4.90;;;;;;;16.69;72.25;101113.03;4995655;28;20034;-48
2023/06/18 02:58:59;;;;;;;8.75;4.68;;;;;;;16.57;72.80;101115.75;4995648;28;20117;-46
2023/06/18 03:01:25;;;;;;;13.05;5.25;;;;;;;16.39;73.98;101111.34;4995691;28;20078;-47
2023/06/18 03:03:53;;;;;;;12.75;5.05;;;;;;;16.17;75.51;101113.00;4995585;28;20105;-47
2023/06/18 03:06:19;;;;;;;13.27;5.40;;;;;;;15.82;76.89;101111.97;4995541;28;20022;-46
2023/06/18 03:08:46;;;;;;;10.25;4.57;;;;;;;15.97;76.42;101119.59;4995442;28;20109;-48
2023/06/18 03:11:13;;;;;;;13.50;5.15;;;;;;;16.04;76.01;101120.28;4994329;28;20061;-47
2023/06/18 03:13:39;;;;;;;10.70;4.45;;;;;;;15.59;77.83;101120.81;4995515;28;20091;-47
2023/06/18 03:16:05;;;;;;;13.38;4.82;;;;;;;15.63;78.20;101115.81;4995693;28;20426;-46
2023/06/18 03:18:32;;;;;;;8.50;4.30;;;;;;;15.75;77.82;101113.13;4995368;28;20482;-49
2023/06/18 03:20:58;;;;;;;14.48;5.05;;;;;;;15.70;78.02;101116.50;4995203;28;20045;-45
2023/06/18 03:23:25;;;;;;;18.90;6.10;;;;;;;15.49;79.59;101109.78;4995266;28;20025;-48
2023/06/18 03:25:51;;;;;;;15.90;5.45;;;;;;;15.41;80.13;101101.19;4995222;28;20022;-50
2023/06/18 03:28:17;;;;;;;17.08;5.28;;;;;;;15.36;80.63;101098.38;4995012;28;20027;-50
2023/06/18 03:30:44;;;;;;;15.35;5.72;;;;;;;15.02;82.26;101092.63;4995773;28;20062;-48
2023/06/18 03:33:10;;;;;;;14.48;4.97;;;;;;;14.95;82.71;101090.03;4994944;28;20046;-49
2023/06/18 03:35:38;;;;;;;14.32;5.45;;;;;;;15.01;82.83;101082.91;4995366;28;20029;-48
2023/06/18 03:38:04;;;;;;;14.57;4.75;;;;;;;15.11;82.38;101090.47;4995108;28;20069;-45
2023/06/18 03:40:31;;;;;;;14.90;4.80;;;;;;;15.06;82.33;101093.84;4994795;28;20053;-49
2023/06/18 03:42:57;;;;;;;18.23;4.53;;;;;;;14.96;83.09;101089.00;4994822;28;20025;-48
2023/06/18 03:45:23;;;;;;;15.50;5.40;;;;;;;14.91;83.20;101085.34;4994659;28;20029;-49
2023/06/18 03:47:50;;;;;;;11.57;5.57;;;;;;;14.85;83.78;101089.75;4994776;28;20022;-49
2023/06/18 03:50:16;;;;;;;21.70;5.75;;;;;;;14.75;84.56;101090.31;4994977;28;20101;-49
2023/06/18 03:52:42;;;;;;;10.25;5.32;;;;;;;14.70;85.04;101089.34;4994631;28;20026;-49
2023/06/18 03:55:09;;;;;;;13.35;5.05;;;;;;;14.79;85.18;101086.09;4994519;28;20034;-48
2023/06/18 03:57:35;;;;;;;13.63;4.95;;;;;;;14.84;85.00;101079.22;4994606;28;20026;-50
2023/06/18 04:00:03;;;;;;;10.88;4.78;;;;;;;14.85;84.71;101076.28;4994325;28;20053;-49
2023/06/18 04:02:29;;;;;;;15.25;4.93;;;;;;;14.86;85.33;101066.34;4994472;28;20068;-48
2023/06/18 04:04:56;;;;;;;17.63;5.95;;;;;;;14.90;84.89;101084.50;4994422;28;20025;-49
2023/06/18 04:07:22;;;;;;;10.35;4.70;;;;;;;14.90;85.18;101089.91;4994235;28;20026;-49
2023/06/18 04:09:48;;;;;;;13.15;4.93;;;;;;;14.90;85.35;101089.91;4994470;28;20054;-46
2023/06/18 04:12:15;;;;;;;18.02;4.68;;;;;;;15.04;84.74;101095.91;4994254;28;20026;-45
2023/06/18 04:14:41;;;;;;;18.23;5.45;;;;;;;15.04;84.49;101099.44;4994465;28;20113;-45
2023/06/18 04:17:07;;;;;;;18.40;5.15;;;;;;;15.02;84.44;101090.75;4994229;28;20061;-45
2023/06/18 04:19:34;;;;;;;24.48;6.88;;;;;;;14.84;85.33;101098.91;4994298;28;20459;-45
2023/06/18 04:22:00;;;;;;;27.45;6.78;;;;;;;14.92;85.44;101101.28;4994080;28;20034;-44
2023/06/18 04:24:26;;;;;;;25.55;7.07;;;;;;;14.80;86.28;101103.09;4994722;28;20483;-48
2023/06/18 04:26:52;;;;;;;25.52;6.63;;;;;;;14.87;85.97;101106.53;4993980;28;20067;-45
2023/06/18 04:29:19;;;;;;;26.08;6.97;;;;;;;14.79;86.04;101107.66;4993852;28;20037;-45
2023/06/18 04:31:46;;;;;;;26.02;6.30;;;;;;;14.71;86.36;101091.81;4994003;28;20026;-45
2023/06/18 04:34:12;;;;;;;19.42;5.65;;;;;;;14.79;86.08;101102.28;4993893;28;20030;-44
2023/06/18 04:36:40;;;;;;;27.95;6.07;;;;;;;14.71;86.52;101094.53;4994404;28;20026;-44
2023/06/18 04:39:06;;;;;;;23.15;5.70;;;;;;;14.72;86.59;101100.72;4993745;28;20117;-49
2023/06/18 04:41:32;;;;;;;17.75;5.95;;;;;;;14.71;86.05;101113.38;4993698;28;20097;-47
2023/06/18 04:43:59;;;;;;;23.58;5.97;;;;;;;14.58;86.45;101104.63;4994092;28;20077;-45
2023/06/18 04:46:25;;;;;;;25.77;6.82;;;;;;;14.59;86.35;101108.97;4993682;28;20026;-47
2023/06/18 04:48:51;;;;;;;23.30;5.88;;;;;;;14.59;86.44;101108.97;4994044;28;20030;-47
2023/06/18 04:51:18;;;;;;;22.73;6.60;;;;;;;14.66;86.25;101104.34;4994002;28;20057;-45
2023/06/18 04:53:44;;;;;;;20.42;6.53;;;;;;;14.61;86.63;101099.63;4993640;28;20475;-45
2023/06/18 04:56:11;;;;;;;21.15;6.20;;;;;;;14.59;86.42;101099.00;4993709;28;20033;-47
2023/06/18 04:58:40;;;;;;;24.23;6.65;;;;;;;14.58;86.64;101101.94;4993467;28;20022;-45
2023/06/18 05:01:07;;;;;;;22.50;6.35;;;;;;;14.70;85.37;101100.94;4993578;28;20053;-45
2023/06/18 05:03:33;;;;;;;21.38;6.53;;;;;;;14.63;85.68;101104.78;4993477;28;20034;-44
2023/06/18 05:06:00;;;;;;;24.08;6.63;;;;;;;14.58;85.60;101110.00;4993695;28;20038;-45
2023/06/18 05:08:26;;;;;;;22.48;6.00;;;;;;;14.53;85.82;101113.38;4993446;28;20026;-45
2023/06/18 05:10:52;;;;;;;27.02;6.30;;;;;;;14.51;85.87;101113.59;4993326;28;20034;-45
2023/06/18 05:13:19;;;;;;;26.92;7.43;;;;;;;14.49;85.90;101121.09;4993476;28;20061;-45
2023/06/18 05:15:45;;;;;;;21.52;6.45;;;;;;;14.50;85.82;101116.53;4993469;28;20102;-44
2023/06/18 05:18:11;;;;;;;18.35;6.10;;;;;;;14.61;85.44;101106.88;4993413;28;20023;-45
2023/06/18 05:20:38;;;;;;;31.50;7.07;;;;;;;14.49;85.54;101104.94;4993396;28;20038;-45
2023/06/18 05:23:04;;;;;;;19.50;6.07;;;;;;;14.57;85.22;101094.91;4993903;28;20038;-44
2023/06/18 05:25:30;;;;;;;21.27;5.80;;;;;;;14.48;85.30;101107.84;4993561;28;20116;-45
2023/06/18 05:27:56;;;;;;;22.50;6.60;;;;;;;14.45;85.32;101100.19;4993852;28;20053;-45
2023/06/18 05:30:23;;;;;;;23.90;6.70;;;;;;;14.42;85.27;101093.38;4993662;28;20048;-50
2023/06/18 05:32:49;;;;;;;33.47;7.57;;;;;;;14.47;85.03;101090.03;4993514;28;20030;-48
2023/06/18 05:35:16;;;;;;;19.35;5.88;;;;;;;14.48;85.00;101091.69;4996723;28;20069;-49
2023/06/18 05:37:42;;;;;;;23.77;6.32;;;;;;;14.44;84.95;101090.47;4997405;28;20059;-45
2023/06/18 05:40:09;;;;;;;26.42;6.55;;;;;;;14.40;85.24;101078.50;4996657;28;20113;-48
2023/06/18 05:42:35;;;;;;;22.65;6.47;;;;;;;14.45;84.89;101087.56;4995628;28;20491;-46
2023/06/18 05:45:02;;;;;;;19.13;5.35;;;;;;;14.41;85.29;101091.72;4995590;28;20022;-45
2023/06/18 05:47:28;;;;;;;18.60;6.10;;;;;;;14.45;85.00;101090.25;4995514;28;20053;-47
2023/06/18 05:49:54;;;;;;;21.20;5.70;;;;;;;14.43;84.84;101089.63;4995680;28;20033;-46
2023/06/18 05:52:21;;;;;;;32.88;6.82;;;;;;;14.36;85.20;101091.59;4995659;28;20450;-47
2023/06/18 05:54:47;;;;;;;22.10;6.30;;;;;;;14.31;85.25;101086.03;4995568;28;20110;-47
2023/06/18 05:57:13;;;;;;;29.05;6.05;;;;;;;14.37;84.93;101087.84;4995599;28;20050;-45
2023/06/18 05:59:40;;;;;;;23.08;6.80;;;;;;;14.41;84.76;101080.13;4995446;28;20041;-48
2023/06/18 06:02:06;;;;;;;21.38;5.72;;;;;;;14.27;85.23;101079.50;4995709;28;20077;-49
2023/06/18 06:04:32;;;;;;;26.63;6.22;;;;;;;14.40;84.39;101070.44;4996136;28;20030;-46
2023/06/18 06:06:59;;;;;;;18.90;6.13;;;;;;;14.41;84.23;101075.56;4995929;28;20065;-46
2023/06/18 06:09:25;;;;;;;20.88;5.90;;;;;;;14.42;84.47;101076.41;4995390;28;20543;-46
2023/06/18 06:11:52;;;;;;;27.35;6.93;;;;;;;14.39;84.33;101066.91;4995571;28;20030;-45
2023/06/18 06:14:18;;;;;;;20.60;6.10;;;;;;;14.38;84.26;101067.97;4995347;28;20137;-44
2023/06/18 06:16:44;;;;;;;25.30;6.07;;;;;;;14.39;84.14;101061.53;4995148;28;20018;-44
2023/06/18 06:19:10;;;;;;;28.17;6.88;;;;;;;14.39;84.47;101061.53;4995112;28;20031;-47
2023/06/18 06:21:37;;;;;;;19.73;6.07;;;;;;;14.43;84.09;101051.94;4995201;28;20031;-46
2023/06/18 06:24:03;;;;;;;21.20;6.43;;;;;;;14.46;83.86;101053.34;4995240;28;20065;-45
2023/06/18 06:26:29;;;;;;;17.80;6.47;;;;;;;14.45;83.88;101055.22;4995154;28;20037;-49
2023/06/18 06:28:56;;;;;;;23.90;6.80;;;;;;;14.52;83.66;101047.91;4995003;28;20034;-49
2023/06/18 06:31:22;;;;;;;26.42;7.10;;;;;;;14.42;83.98;101044.91;4995016;28;20144;-49
2023/06/18 06:33:50;;;;;;;19.42;6.03;;;;;;;14.36;84.33;101051.19;4995020;28;20018;-50
2023/06/18 06:36:16;;;;;;;24.85;6.57;;;;;;;14.36;84.53;101056.56;4994896;28;20383;-46
2023/06/18 06:38:42;;;;;;;24.95;6.53;;;;;;;14.18;85.46;101056.59;4995191;28;20033;-48
2023/06/18 06:41:09;;;;;;;32.22;7.00;;;;;;;14.30;84.86;101046.72;4926300;28;2005469;-49
2023/06/18 06:43:35;;;;;;;24.58;6.63;;;;;;;14.22;84.97;101044.34;4995958;28;20034;-49
2023/06/18 06:46:01;;;;;;;23.25;7.43;;;;;;;14.25;85.04;101044.69;5010864;28;20079;-49
2023/06/18 06:48:28;;;;;;;34.08;7.78;;;;;;;14.16;85.03;101040.66;4996154;28;20045;-45
2023/06/18 06:50:54;;;;;;;22.00;6.50;;;;;;;14.21;84.98;101051.59;4996084;28;20064;-47
2023/06/18 06:53:20;;;;;;;24.48;7.95;;;;;;;14.20;85.17;101046.41;4995796;28;20027;-48
2023/06/18 06:55:46;;;;;;;29.75;7.25;;;;;;;14.09;85.43;101050.66;4995663;28;20046;-46
2023/06/18 06:58:13;;;;;;;31.08;7.57;;;;;;;14.04;85.75;101052.38;4995732;28;20482;-48
2023/06/18 07:00:39;;;;;;;27.95;7.80;;;;;;;14.13;85.34;101057.25;4995601;28;20438;-47
2023/06/18 07:03:05;;;;;;;28.20;7.40;;;;;;;14.14;85.22;101044.63;4995646;28;20086;-49
2023/06/18 07:05:32;;;;;;;27.98;7.20;;;;;;;14.10;85.13;101041.56;4995558;28;20022;-45
2023/06/18 07:07:58;;;;;;;24.88;7.13;;;;;;;14.06;85.46;101040.38;4995516;28;20037;-48
2023/06/18 07:10:24;;;;;;;28.92;7.38;;;;;;;14.04;85.56;101045.13;4995526;28;20031;-49
2023/06/18 07:12:50;;;;;;;19.27;7.28;;;;;;;14.07;85.51;101030.44;4995275;28;20030;-48
2023/06/18 07:15:17;;;;;;;27.45;7.43;;;;;;;14.06;85.54;101039.56;4995426;28;20041;-47
2023/06/18 07:17:43;;;;;;;29.38;8.38;;;;;;;14.14;85.10;101031.16;4995515;28;20058;-47
2023/06/18 07:20:09;;;;;;;29.88;7.63;;;;;;;13.99;85.83;101020.75;4995232;28;20074;-49
2023/06/18 07:22:36;;;;;;;29.83;7.45;;;;;;;13.92;86.10;101012.75;4995276;28;20062;-48
2023/06/18 07:25:03;;;;;;;28.15;8.27;;;;;;;14.00;85.89;101019.75;4995141;28;20042;-45
2023/06/18 07:27:29;;;;;;;33.40;7.82;;;;;;;13.98;85.83;101016.44;4995093;28;20102;-48
2023/06/18 07:29:56;;;;;;;17.58;6.55;;;;;;;13.94;85.57;101026.00;4995084;28;20471;-48
2023/06/18 07:32:22;;;;;;;33.38;8.27;;;;;;;14.02;85.35;101024.88;5010198;28;20033;-47
2023/06/18 07:34:48;;;;;;;28.63;7.70;;;;;;;14.03;85.10;101015.75;4995284;28;20022;-49
2023/06/18 07:37:14;;;;;;;27.42;7.57;;;;;;;14.08;85.24;101018.59;4994897;28;20030;-49
2023/06/18 07:39:41;;;;;;;28.83;7.80;;;;;;;13.95;85.77;101023.09;4994563;28;20034;-45
2023/06/18 07:42:07;;;;;;;33.63;7.38;;;;;;;13.99;85.72;101015.38;4994901;28;20070;-45
2023/06/18 07:44:35;;;;;;;31.33;7.13;;;;;;;14.02;86.19;101019.50;4994858;28;20424;-47
2023/06/18 07:47:02;;;;;;;29.67;7.07;;;;;;;14.02;86.39;101014.13;4994789;28;20033;-46
2023/06/18 07:49:28;;;;;;;29.52;7.65;;;;;;;14.10;86.21;101013.81;4994689;28;20070;-49
2023/06/18 07:51:54;;;;;;;32.35;8.02;;;;;;;14.05;86.53;101016.34;4994571;28;20030;-49
2023/06/18 07:54:21;;;;;;;27.60;8.20;;;;;;;14.13;85.88;101016.88;4994496;28;20033;-48
2023/06/18 07:56:47;;;;;;;25.90;7.55;;;;;;;14.05;86.40;101013.66;4994017;28;20026;-46
2023/06/18 07:59:14;;;;;;;36.30;9.23;;;;;;;14.06;86.35;101009.94;4995061;28;20467;-48
2023/06/18 08:01:40;;;;;;;30.75;8.40;;;;;;;14.03;86.62;101002.31;4995388;28;20502;-45
2023/06/18 08:04:08;;;;;;;28.23;8.40;;;;;;;14.03;86.97;101003.13;4995261;28;20026;-49
2023/06/18 08:06:34;;;;;;;32.20;8.15;;;;;;;14.10;86.41;100997.66;4995465;28;20476;-46
2023/06/18 08:09:00;;;;;;;38.15;8.77;;;;;;;14.09;86.60;100999.53;4994258;28;20435;-45
2023/06/18 08:11:26;;;;;;;30.95;8.32;;;;;;;14.11;86.38;101000.16;4994330;28;20483;-48
2023/06/18 08:13:53;;;;;;;26.98;8.55;;;;;;;14.17;86.19;100996.53;4994183;28;20392;-49
2023/06/18 08:16:19;;;;;;;33.80;8.80;;;;;;;14.10;86.76;100997.66;4994137;28;20026;-50
2023/06/18 08:18:45;;;;;;;26.30;8.48;;;;;;;14.19;86.18;100994.44;4994247;28;20028;-47
2023/06/18 08:21:11;;;;;;;30.15;8.32;;;;;;;14.13;86.18;101000.72;4994103;28;20084;-49
2023/06/18 08:23:38;;;;;;;31.40;7.97;;;;;;;14.08;86.05;101005.16;4994062;28;20463;-47
2023/06/18 08:26:04;;;;;;;28.38;7.95;;;;;;;14.08;86.18;100997.06;4994099;28;20371;-48
2023/06/18 08:28:30;;;;;;;30.65;6.90;;;;;;;14.04;86.47;100999.38;4994042;28;20383;-48
2023/06/18 08:30:56;;;;;;;29.00;8.23;;;;;;;14.08;86.40;100995.19;4993898;28;20022;-46
2023/06/18 08:33:23;;;;;;;25.98;8.15;;;;;;;14.02;86.71;101000.66;4993912;28;20022;-50
2023/06/18 08:35:49;;;;;;;36.03;8.55;;;;;;;13.97;86.94;101004.03;4994128;28;20053;-49
2023/06/18 08:38:15;;;;;;;27.50;7.90;;;;;;;13.91;87.04;101008.44;4994609;28;20049;-48
2023/06/18 08:41:01;;;;;;;30.40;7.85;;;;;;;14.04;86.45;101014.72;4994404;28;20189;-48
2023/06/18 08:43:32;;;;;;;25.05;7.45;;;;;;;14.10;86.43;101003.88;4994106;28;20034;-45
2023/06/18 08:46:17;;;;;;;24.33;8.18;;;;;;;14.07;86.68;100995.44;4994137;28;20110;-45
2023/06/18 08:48:48;;;;;;;28.93;8.00;;;;;;;14.10;85.97;101000.34;4993182;28;20030;-46
2023/06/18 08:51:17;;;;;;;36.65;8.50;;;;;;;13.97;86.17;100996.78;4993821;28;20446;-47
2023/06/18 08:53:55;;;;;;;26.88;7.68;;;;;;;14.06;86.18;100996.50;4994337;28;20018;-45
2023/06/18 08:56:23;;;;;;;30.80;7.88;;;;;;;14.00;86.31;100988.25;4994150;28;20026;-47
2023/06/18 08:58:53;;;;;;;27.52;8.63;;;;;;;14.04;86.45;100993.19;4993521;28;20038;-50
2023/06/18 09:01:19;;;;;;;26.10;8.07;;;;;;;13.97;86.69;101002.16;4993634;28;20026;-49
2023/06/18 09:03:47;;;;;;;30.38;7.82;;;;;;;14.04;86.59;100998.56;4993663;28;20429;-50
2023/06/18 09:06:13;;;;;;;30.48;8.32;;;;;;;13.98;86.69;101014.56;4993441;28;20029;-49
2023/06/18 09:08:39;;;;;;;37.35;9.18;;;;;;;14.02;87.00;101006.06;4992534;28;20037;-49
2023/06/18 09:11:06;;;;;;;28.98;8.02;;;;;;;14.02;86.71;100997.97;4993547;28;20022;-50
2023/06/18 09:13:34;;;;;;;27.10;7.88;;;;;;;14.03;86.68;100992.34;4993434;28;20026;-47
2023/06/18 09:16:00;;;;;;;33.53;9.57;;;;;;;13.92;86.91;100988.53;4993417;28;20195;-49
2023/06/18 09:18:26;;;;;;;26.33;8.40;;;;;;;13.90;87.36;100979.06;4993691;28;20030;-48
2023/06/18 09:20:53;;;;;;;26.65;8.10;;;;;;;13.92;87.24;100961.63;4993317;28;20502;-49
2023/06/18 09:23:19;;;;;;;34.58;9.95;;;;;;;13.85;87.70;100962.78;4993395;28;20026;-49
2023/06/18 09:25:53;;;;;;;38.20;9.13;;;;;;;13.86;87.39;100976.00;4993419;28;20014;-49
2023/06/18 09:28:20;;;;;;;29.73;9.00;;;;;;;14.00;86.61;100966.72;4993346;28;20570;-49
2023/06/18 09:31:01;;;;;;;28.00;8.15;;;;;;;13.93;86.58;100971.34;4993389;28;20034;-48
2023/06/18 09:33:35;;;;;;;33.22;9.07;;;;;;;13.95;87.04;100963.88;4993147;28;20395;-50
2023/06/18 09:36:06;;;;;;;39.05;9.73;;;;;;;13.87;87.23;100961.47;4993325;28;20022;-46
2023/06/18 09:38:40;;;;;;;28.70;8.07;;;;;;;13.81;88.10;100978.53;4993535;28;20030;-46
2023/06/18 09:41:14;;;;;;;32.67;8.85;;;;;;;13.90;87.72;100958.34;4992912;28;20038;-48
2023/06/18 09:43:43;;;;;;;25.90;8.27;;;;;;;13.97;87.20;100958.28;4993208;28;20100;-47
2023/06/18 09:46:10;;;;;;;23.05;8.93;;;;;;;13.89;87.71;100959.41;4993140;28;20085;-48
2023/06/18 09:48:44;;;;;;;38.65;9.82;;;;;;;13.85;87.91;100960.09;4993130;28;20027;-49
2023/06/18 09:51:13;;;;;;;33.22;9.63;;;;;;;13.88;87.77;100962.31;4993172;28;20037;-45
2023/06/18 09:53:39;;;;;;;26.10;9.05;;;;;;;13.80;88.44;100966.13;4993093;28;20121;-48
2023/06/18 09:56:14;;;;;;;33.58;9.27;;;;;;;13.83;88.06;100957.63;4992945;28;20479;-49
2023/06/18 09:58:46;;;;;;;36.83;9.35;;;;;;;13.88;87.71;100946.16;4993205;28;20104;-48
2023/06/18 10:01:12;;;;;;;28.23;8.77;;;;;;;13.87;87.76;100939.13;4993061;28;20035;-49
2023/06/18 10:03:40;;;;;;;29.85;8.73;;;;;;;13.93;87.42;100949.81;4992983;28;20082;-46
2023/06/18 10:06:11;;;;;;;29.73;8.80;;;;;;;13.89;86.90;100945.97;4992855;28;20022;-47
2023/06/18 10:08:44;;;;;;;35.85;9.90;;;;;;;13.94;86.80;100953.38;4992852;28;20053;-49
2023/06/18 10:11:11;;;;;;;38.20;9.10;;;;;;;13.86;87.20;100954.47;4992985;28;20031;-47
2023/06/18 10:13:53;;;;;;;34.40;9.35;;;;;;;13.80;87.70;100947.28;4992868;28;20026;-45
2023/06/18 10:16:20;;;;;;;28.95;9.18;;;;;;;13.83;87.42;100944.16;4992875;28;20105;-47
2023/06/18 10:18:56;;;;;;;33.83;9.95;;;;;;;13.84;87.27;100948.50;4993090;28;20028;-47
2023/06/18 10:21:25;;;;;;;23.25;7.75;;;;;;;13.86;87.05;100956.34;4996530;28;20387;-45
2023/06/18 10:23:55;;;;;;;32.35;9.07;;;;;;;13.91;86.60;100962.69;4996346;28;20034;-46
2023/06/18 10:26:22;;;;;;;34.22;9.20;;;;;;;13.84;86.99;100958.44;4996209;28;20023;-45
2023/06/18 10:28:53;;;;;;;36.90;9.32;;;;;;;13.78;87.68;100965.53;4996244;28;20109;-45
2023/06/18 10:31:22;;;;;;;28.67;8.65;;;;;;;13.77;87.85;100971.13;4996244;28;20031;-45
2023/06/18 10:33:49;;;;;;;29.55;8.32;;;;;;;13.79;87.71;100964.50;4996450;28;20050;-48
2023/06/18 10:36:15;;;;;;;32.72;8.45;;;;;;;13.76;87.39;100959.53;4996347;28;20026;-45
2023/06/18 10:38:43;;;;;;;23.73;8.13;;;;;;;13.84;87.25;100955.75;4996680;28;20054;-47
2023/06/18 10:41:17;;;;;;;28.02;7.43;;;;;;;13.86;87.28;100953.66;4996092;28;20403;-47
2023/06/18 10:43:48;;;;;;;30.55;8.52;;;;;;;13.65;87.58;100955.72;4996104;28;20547;-46
2023/06/18 10:46:16;;;;;;;24.15;8.18;;;;;;;13.66;87.54;100948.50;4996027;28;20026;-49
2023/06/18 10:49:16;;;;;;;31.35;8.60;;;;;;;13.67;87.97;100950.97;4995854;28;20486;-46
2023/06/18 10:52:05;;;;;;;27.88;8.50;;;;;;;13.70;87.64;100955.88;4995873;28;20022;-46
2023/06/18 10:54:31;;;;;;;36.05;8.75;;;;;;;13.64;87.85;100954.09;4995703;28;20022;-47
2023/06/18 10:56:58;;;;;;;29.58;9.82;;;;;;;13.75;87.29;100957.91;4996056;28;20033;-46
2023/06/18 10:59:57;;;;;;;35.63;7.80;;;;;;;13.80;87.17;100947.28;4995612;28;20018;-46
2023/06/18 11:02:37;;;;;;;23.05;8.38;;;;;;;13.70;87.22;100947.81;4983887;28;20040;-45
2023/06/18 11:05:03;;;;;;;25.95;7.97;;;;;;;13.70;87.14;100934.34;4995613;28;20484;-45
2023/06/18 11:07:31;;;;;;;26.92;7.95;;;;;;;13.63;87.47;100943.56;4995853;28;20029;-45
2023/06/18 11:09:59;;;;;;;31.85;9.05;;;;;;;13.59;87.92;100943.16;4995365;28;20090;-44
2023/06/18 11:12:28;;;;;;;28.15;7.63;;;;;;;13.59;87.88;100950.41;4995445;28;20093;-45
2023/06/18 11:15:20;;;;;;;25.27;8.18;;;;;;;13.60;87.66;100949.38;4995458;28;20022;-45
2023/06/18 11:17:51;;;;;;;26.73;7.80;;;;;;;13.64;87.29;100946.03;4996194;28;20058;-45
2023/06/18 11:20:20;;;;;;;30.02;8.70;;;;;;;13.60;87.84;100949.38;4995241;28;20089;-45
2023/06/18 11:22:47;;;;;;;32.85;8.18;;;;;;;13.62;87.52;100947.31;4995484;28;20249;-47
2023/06/18 11:25:14;;;;;;;32.53;8.70;;;;;;;13.65;87.12;100952.22;4995265;28;20030;-45